createdAt,value
2017-08-24T00:00:58.217Z,6.90
2017-08-24T00:03:26.546Z,6.87
2017-08-24T00:05:54.897Z,6.80
2017-08-24T00:08:23.222Z,6.20
2017-08-24T00:10:51.523Z,7.00
2017-08-24T00:13:19.862Z,6.30
2017-08-24T00:15:48.168Z,6.40
2017-08-24T00:18:16.491Z,6.97
2017-08-24T00:20:44.808Z,6.97
2017-08-24T00:23:13.134Z,7.80
2017-08-24T00:25:42.221Z,6.80
2017-08-24T00:28:10.569Z,6.83
2017-08-24T00:30:38.887Z,8.37
2017-08-24T00:33:07.224Z,7.37
2017-08-24T00:35:35.545Z,7.13
2017-08-24T00:38:04.669Z,6.40
2017-08-24T00:40:32.977Z,7.30
2017-08-24T00:43:01.285Z,6.37
2017-08-24T00:45:29.635Z,7.10
2017-08-24T00:47:57.946Z,6.33
2017-08-24T00:50:27.052Z,6.40
2017-08-24T00:52:55.378Z,7.10
2017-08-24T00:55:24.472Z,7.47
2017-08-24T00:57:52.791Z,7.93
2017-08-24T01:00:21.121Z,7.57
2017-08-24T01:02:49.450Z,7.40
2017-08-24T01:05:17.788Z,7.00
2017-08-24T01:07:46.096Z,7.70
2017-08-24T01:10:14.451Z,7.33
2017-08-24T01:12:42.762Z,7.10
2017-08-24T01:15:11.094Z,7.57
2017-08-24T01:17:39.407Z,7.50
2017-08-24T01:20:07.755Z,7.80
2017-08-24T01:22:36.066Z,8.00
2017-08-24T01:25:04.368Z,7.30
2017-08-24T01:27:32.706Z,7.40
2017-08-24T01:30:01.022Z,8.23
2017-08-24T01:32:29.357Z,6.90
2017-08-24T01:34:57.665Z,7.77
2017-08-24T01:37:26.001Z,6.77
2017-08-24T01:39:54.315Z,7.47
2017-08-24T01:42:22.645Z,7.13
2017-08-24T01:44:50.955Z,5.73
2017-08-24T01:47:19.298Z,7.10
2017-08-24T01:49:47.605Z,7.17
2017-08-24T01:52:15.937Z,8.13
2017-08-24T01:54:44.250Z,6.77
2017-08-24T01:57:12.590Z,9.03
2017-08-24T01:59:40.948Z,8.50
2017-08-24T02:02:09.393Z,7.70
2017-08-24T02:04:37.776Z,8.30
2017-08-24T02:07:06.230Z,8.30
2017-08-24T02:09:34.613Z,7.10
2017-08-24T02:12:02.916Z,8.00
2017-08-24T02:14:31.255Z,7.73
2017-08-24T02:16:59.570Z,6.83
2017-08-24T02:19:27.906Z,8.10
2017-08-24T02:21:56.218Z,8.37
2017-08-24T02:24:24.565Z,7.80
2017-08-24T02:26:52.886Z,6.93
2017-08-24T02:29:21.250Z,8.10
2017-08-24T02:31:49.577Z,7.67
2017-08-24T02:34:17.888Z,7.60
2017-08-24T02:36:46.474Z,7.73
2017-08-24T02:39:15.559Z,7.90
2017-08-24T02:41:43.894Z,8.03
2017-08-24T02:44:12.222Z,8.30
2017-08-24T02:46:40.568Z,7.97
2017-08-24T02:49:08.873Z,9.00
2017-08-24T02:51:37.218Z,8.40
2017-08-24T02:54:05.545Z,8.67
2017-08-24T02:56:33.910Z,7.50
2017-08-24T02:59:02.212Z,8.07
2017-08-24T03:01:30.673Z,8.50
2017-08-24T03:03:58.977Z,8.00
2017-08-24T03:06:27.283Z,8.30
2017-08-24T03:08:55.604Z,8.37
2017-08-24T03:11:23.911Z,8.13
2017-08-24T03:13:52.257Z,8.20
2017-08-24T03:16:20.561Z,7.80
2017-08-24T03:18:48.889Z,8.10
2017-08-24T03:21:17.191Z,9.30
2017-08-24T03:23:45.532Z,8.03
2017-08-24T03:26:13.841Z,8.10
2017-08-24T03:28:42.181Z,9.07
2017-08-24T03:31:10.488Z,8.17
2017-08-24T03:33:38.838Z,8.33
2017-08-24T03:36:07.157Z,8.50
2017-08-24T03:38:35.481Z,9.30
2017-08-24T03:41:03.810Z,9.37
2017-08-24T03:43:32.116Z,8.60
2017-08-24T03:46:00.433Z,8.30
2017-08-24T03:48:28.736Z,9.37
2017-08-24T03:50:57.063Z,8.93
2017-08-24T03:53:27.308Z,8.27
2017-08-24T03:55:55.641Z,8.30
2017-08-24T03:58:23.955Z,8.50
2017-08-24T04:00:52.272Z,7.90
2017-08-24T04:03:20.568Z,8.47
2017-08-24T04:05:48.918Z,8.50
2017-08-24T04:08:17.236Z,9.87
2017-08-24T04:10:46.304Z,9.10
2017-08-24T04:13:14.626Z,9.93
2017-08-24T04:15:42.933Z,8.73
2017-08-24T04:18:11.249Z,8.20
2017-08-24T04:20:39.563Z,8.43
2017-08-24T04:23:08.816Z,7.77
2017-08-24T04:25:38.084Z,8.77
2017-08-24T04:28:06.414Z,9.10
2017-08-24T04:30:35.479Z,8.20
2017-08-24T04:33:03.802Z,8.27
2017-08-24T04:35:32.116Z,9.20
2017-08-24T04:38:00.440Z,8.23
2017-08-24T04:40:28.735Z,9.20
2017-08-24T04:42:57.065Z,8.80
2017-08-24T04:45:25.360Z,9.40
2017-08-24T04:47:53.660Z,9.67
2017-08-24T04:50:21.988Z,9.27
2017-08-24T04:52:50.300Z,9.20
2017-08-24T04:55:18.624Z,9.07
2017-08-24T04:57:46.944Z,9.30
2017-08-24T05:00:15.272Z,9.10
2017-08-24T05:02:43.598Z,8.53
2017-08-24T05:05:11.957Z,9.20
2017-08-24T05:07:40.277Z,8.70
2017-08-24T05:10:08.613Z,8.10
2017-08-24T05:12:36.926Z,8.60
2017-08-24T05:15:05.264Z,9.53
2017-08-24T05:17:33.583Z,9.50
2017-08-24T05:20:01.912Z,9.80
2017-08-24T05:22:30.213Z,9.20
2017-08-24T05:24:58.547Z,9.07
2017-08-24T05:27:26.857Z,7.77
2017-08-24T05:29:55.159Z,8.80
2017-08-24T05:32:23.471Z,8.07
2017-08-24T05:34:51.785Z,8.70
2017-08-24T05:37:20.129Z,8.43
2017-08-24T05:39:49.209Z,8.40
2017-08-24T05:42:17.525Z,8.00
2017-08-24T05:44:45.842Z,9.27
2017-08-24T05:47:14.160Z,7.50
2017-08-24T05:49:43.226Z,8.87
2017-08-24T05:52:11.547Z,8.50
2017-08-24T05:54:39.852Z,9.20
2017-08-24T06:00:08.563Z,8.93
2017-08-24T06:02:36.917Z,9.70
2017-08-24T06:05:05.251Z,9.70
2017-08-24T06:07:33.595Z,10.00
2017-08-24T06:10:01.918Z,10.47
2017-08-24T06:12:30.246Z,9.87
2017-08-24T06:14:58.588Z,9.67
2017-08-24T06:17:30.122Z,10.00
2017-08-24T06:19:58.469Z,9.27
2017-08-24T06:22:26.784Z,8.93
2017-08-24T06:24:55.192Z,9.13
2017-08-24T06:27:23.505Z,8.70
2017-08-24T06:29:51.851Z,9.30
2017-08-24T06:32:20.165Z,8.70
2017-08-24T06:34:48.484Z,9.77
2017-08-24T06:37:16.793Z,8.20
2017-08-24T06:39:45.131Z,8.77
2017-08-24T06:42:13.440Z,8.10
2017-08-24T06:44:41.773Z,9.37
2017-08-24T06:47:10.086Z,8.13
2017-08-24T06:49:38.462Z,8.63
2017-08-24T06:52:06.811Z,9.03
2017-08-24T06:54:35.126Z,8.60
2017-08-24T06:57:03.466Z,8.83
2017-08-24T06:59:31.780Z,8.10
2017-08-24T07:02:00.110Z,9.83
2017-08-24T07:04:28.413Z,8.13
2017-08-24T07:06:56.764Z,8.17
2017-08-24T07:09:25.077Z,7.87
2017-08-24T07:11:53.418Z,6.90
2017-08-24T07:14:21.718Z,7.40
2017-08-24T07:16:50.052Z,9.53
2017-08-24T07:19:18.368Z,6.80
2017-08-24T07:21:46.698Z,8.03
2017-08-24T07:24:15.013Z,8.30
2017-08-24T07:26:43.354Z,7.43
2017-08-24T07:29:11.684Z,8.37
2017-08-24T07:31:40.030Z,8.50
2017-08-24T07:34:08.353Z,8.03
2017-08-24T07:36:36.678Z,7.77
2017-08-24T07:39:05.059Z,6.37
2017-08-24T07:41:33.362Z,7.23
2017-08-24T07:44:01.694Z,9.00
2017-08-24T07:46:30.002Z,7.90
2017-08-24T07:48:58.329Z,7.30
2017-08-24T07:51:26.644Z,6.90
2017-08-24T07:53:54.978Z,7.67
2017-08-24T07:56:23.285Z,7.20
2017-08-24T07:58:51.632Z,7.03
2017-08-24T08:01:19.954Z,7.20
2017-08-24T08:03:49.051Z,7.60
2017-08-24T08:06:17.358Z,7.70
2017-08-24T08:08:45.694Z,7.17
2017-08-24T08:11:14.015Z,7.37
2017-08-24T08:13:42.355Z,6.87
2017-08-24T08:16:10.678Z,6.70
2017-08-24T08:18:39.039Z,7.00
2017-08-24T08:21:07.350Z,6.83
2017-08-24T08:23:35.665Z,7.17
2017-08-24T08:26:04.007Z,6.10
2017-08-24T08:28:32.315Z,6.87
2017-08-24T08:31:00.646Z,7.20
2017-08-24T08:33:28.952Z,6.67
2017-08-24T08:35:57.282Z,6.70
2017-08-24T08:38:25.602Z,7.07
2017-08-24T08:40:53.939Z,7.00
2017-08-24T08:43:22.252Z,6.80
2017-08-24T08:45:50.583Z,7.60
2017-08-24T08:48:18.910Z,7.60
2017-08-24T08:50:47.246Z,8.43
2017-08-24T08:53:15.566Z,8.77
2017-08-24T08:55:43.930Z,7.60
2017-08-24T08:58:12.254Z,8.20
2017-08-24T09:00:40.569Z,8.20
2017-08-24T09:03:08.895Z,8.27
2017-08-24T09:05:37.223Z,6.90
2017-08-24T09:08:05.563Z,6.80
2017-08-24T09:10:33.862Z,5.83
2017-08-24T09:13:02.187Z,6.80
2017-08-24T09:15:30.511Z,5.93
2017-08-24T09:17:58.842Z,5.73
2017-08-24T09:20:27.155Z,4.63
2017-08-24T09:22:55.483Z,5.20
2017-08-24T09:25:23.787Z,5.70
2017-08-24T09:27:52.119Z,5.70
2017-08-24T09:30:20.426Z,5.43
2017-08-24T09:32:48.758Z,6.57
2017-08-24T09:35:17.066Z,6.00
2017-08-24T09:37:45.387Z,6.07
2017-08-24T09:40:13.717Z,5.73
2017-08-24T09:42:42.024Z,5.20
2017-08-24T09:45:10.354Z,5.10
2017-08-24T09:47:38.670Z,5.70
2017-08-24T09:50:07.011Z,4.90
2017-08-24T09:52:36.087Z,4.17
2017-08-24T09:55:04.429Z,4.60
2017-08-24T09:57:32.741Z,4.97
2017-08-24T10:00:01.060Z,4.20
2017-08-24T10:02:29.413Z,4.30
2017-08-24T10:04:57.747Z,4.40
2017-08-24T10:07:26.045Z,4.27
2017-08-24T10:09:54.382Z,3.70
2017-08-24T10:12:22.719Z,3.67
2017-08-24T10:14:51.060Z,4.33
2017-08-24T10:17:19.369Z,3.43
2017-08-24T10:19:47.682Z,3.60
2017-08-24T10:22:16.017Z,3.47
2017-08-24T10:24:44.322Z,3.03
2017-08-24T10:27:12.658Z,3.27
2017-08-24T10:29:40.994Z,3.90
2017-08-24T10:32:09.318Z,3.67
2017-08-24T10:34:37.638Z,3.33
2017-08-24T10:37:05.971Z,3.20
2017-08-24T10:39:34.276Z,3.50
2017-08-24T10:42:02.609Z,3.47
2017-08-24T10:44:30.914Z,2.57
2017-08-24T10:46:59.250Z,3.60
2017-08-24T10:49:27.567Z,3.17
2017-08-24T10:51:55.874Z,3.10
2017-08-24T10:54:24.198Z,3.10
2017-08-24T10:56:52.511Z,2.80
2017-08-24T10:59:20.839Z,3.63
2017-08-24T11:01:49.141Z,3.70
2017-08-24T11:04:17.474Z,3.00
2017-08-24T11:06:45.790Z,3.50
2017-08-24T11:09:14.114Z,3.00
2017-08-24T11:11:42.417Z,3.00
2017-08-24T11:14:10.749Z,3.80
2017-08-24T11:16:39.065Z,3.23
2017-08-24T11:19:08.154Z,3.23
2017-08-24T11:21:36.460Z,2.80
2017-08-24T11:24:04.791Z,2.83
2017-08-24T11:26:33.119Z,3.27
2017-08-24T11:29:01.434Z,2.83
2017-08-24T11:31:29.765Z,2.87
2017-08-24T11:33:58.077Z,2.87
2017-08-24T11:36:26.406Z,3.00
2017-08-24T11:38:55.479Z,2.50
2017-08-24T11:41:23.810Z,3.37
2017-08-24T11:43:52.135Z,3.30
2017-08-24T11:46:20.468Z,2.80
2017-08-24T11:48:48.793Z,2.50
2017-08-24T11:51:17.100Z,2.27
2017-08-24T11:53:45.415Z,2.60
2017-08-24T11:59:15.098Z,2.90
2017-08-24T12:01:44.178Z,2.33
2017-08-24T12:04:12.531Z,2.50
2017-08-24T12:06:40.847Z,2.93
2017-08-24T12:09:09.163Z,2.70
2017-08-24T12:11:37.499Z,2.83
2017-08-24T12:14:05.827Z,2.57
2017-08-24T12:16:40.984Z,2.90
2017-08-24T12:19:10.078Z,2.60
2017-08-24T12:21:38.388Z,2.80
2017-08-24T12:24:06.729Z,3.00
2017-08-24T12:26:35.043Z,2.63
2017-08-24T12:29:03.370Z,3.07
2017-08-24T12:31:31.679Z,3.10
2017-08-24T12:34:00.017Z,2.50
2017-08-24T12:36:28.334Z,2.10
2017-08-24T12:38:56.666Z,2.90
2017-08-24T12:41:24.971Z,2.70
2017-08-24T12:43:53.302Z,2.27
2017-08-24T12:46:21.598Z,3.20
2017-08-24T12:48:49.940Z,3.00
2017-08-24T12:51:18.250Z,2.20
2017-08-24T12:53:46.593Z,2.37
2017-08-24T12:56:14.899Z,2.23
2017-08-24T12:58:43.250Z,2.20
2017-08-24T13:01:11.563Z,2.37
2017-08-24T13:03:39.914Z,2.20
2017-08-24T13:06:08.247Z,2.53
2017-08-24T13:08:36.562Z,2.73
2017-08-24T13:11:04.895Z,3.07
2017-08-24T13:13:33.232Z,2.20
2017-08-24T13:16:01.561Z,2.07
2017-08-24T13:18:29.856Z,2.50
2017-08-24T13:20:58.185Z,2.53
2017-08-24T13:23:26.499Z,2.60
2017-08-24T13:25:54.826Z,2.40
2017-08-24T13:28:23.138Z,3.13
2017-08-24T13:30:51.474Z,2.70
2017-08-24T13:33:19.802Z,3.07
2017-08-24T13:35:48.141Z,2.80
2017-08-24T13:38:16.465Z,2.97
2017-08-24T13:40:44.817Z,2.80
2017-08-24T13:43:13.131Z,2.27
2017-08-24T13:45:41.509Z,2.97
2017-08-24T13:48:09.814Z,2.67
2017-08-24T13:50:38.142Z,2.50
2017-08-24T13:53:06.450Z,2.80
2017-08-24T13:55:34.779Z,2.20
2017-08-24T13:58:03.078Z,2.87
2017-08-24T14:00:31.425Z,2.97
2017-08-24T14:02:59.751Z,2.57
2017-08-24T14:05:28.079Z,2.73
2017-08-24T14:07:56.395Z,2.60
2017-08-24T14:10:24.746Z,2.60
2017-08-24T14:12:53.045Z,3.30
2017-08-24T14:15:21.374Z,2.37
2017-08-24T14:17:49.715Z,2.57
2017-08-24T14:20:18.020Z,2.80
2017-08-24T14:22:46.344Z,2.67
2017-08-24T14:25:14.645Z,2.33
2017-08-24T14:27:42.978Z,2.47
2017-08-24T14:30:11.286Z,2.47
2017-08-24T14:32:39.626Z,2.90
2017-08-24T14:35:07.927Z,2.70
2017-08-24T14:37:36.256Z,2.97
2017-08-24T14:40:04.561Z,2.70
2017-08-24T14:42:32.885Z,2.33
2017-08-24T14:45:01.196Z,2.70
2017-08-24T14:47:29.529Z,3.40
2017-08-24T14:49:57.843Z,2.60
2017-08-24T14:52:26.171Z,2.83
2017-08-24T14:54:54.492Z,3.33
2017-08-24T14:57:22.826Z,2.90
2017-08-24T14:59:51.154Z,2.30
2017-08-24T15:02:19.487Z,2.17
2017-08-24T15:04:48.677Z,2.47
2017-08-24T15:07:17.007Z,1.70
2017-08-24T15:09:45.315Z,2.17
2017-08-24T15:12:13.650Z,2.03
2017-08-24T15:14:41.964Z,1.83
2017-08-24T15:17:10.307Z,1.50
2017-08-24T15:19:38.614Z,1.90
2017-08-24T15:22:06.965Z,1.70
2017-08-24T15:24:35.273Z,1.80
2017-08-24T15:27:03.590Z,2.17
2017-08-24T15:29:31.920Z,2.03
2017-08-24T15:32:00.232Z,1.80
2017-08-24T15:34:28.575Z,1.60
2017-08-24T15:36:56.886Z,1.60
2017-08-24T15:39:25.214Z,2.87
2017-08-24T15:41:53.537Z,1.47
2017-08-24T15:44:21.875Z,2.00
2017-08-24T15:46:50.190Z,1.70
2017-08-24T15:49:18.572Z,1.50
2017-08-24T15:51:46.879Z,1.77
2017-08-24T15:54:15.219Z,1.50
2017-08-24T15:56:43.526Z,1.60
2017-08-24T15:59:11.866Z,1.33
2017-08-24T16:01:40.170Z,1.20
2017-08-24T16:04:08.498Z,1.93
2017-08-24T16:06:36.801Z,1.30
2017-08-24T16:09:05.130Z,1.40
2017-08-24T16:11:33.443Z,1.60
2017-08-24T16:14:01.770Z,1.23
2017-08-24T16:16:30.842Z,1.53
2017-08-24T16:18:59.173Z,1.50
2017-08-24T16:21:27.493Z,1.60
2017-08-24T16:23:55.878Z,1.70
2017-08-24T16:26:24.185Z,1.40
2017-08-24T16:28:53.297Z,1.30
2017-08-24T16:31:21.610Z,1.00
2017-08-24T16:33:49.985Z,1.57
2017-08-24T16:36:18.284Z,1.33
2017-08-24T16:38:46.590Z,1.83
2017-08-24T16:41:15.708Z,1.43
2017-08-24T16:43:44.021Z,1.43
2017-08-24T16:46:12.382Z,1.30
2017-08-24T16:48:40.695Z,1.77
2017-08-24T16:51:09.025Z,1.27
2017-08-24T16:53:37.339Z,1.37
2017-08-24T16:56:05.683Z,1.57
2017-08-24T17:01:28.763Z,1.40
2017-08-24T17:03:57.061Z,1.37
2017-08-24T17:06:25.395Z,1.23
2017-08-24T17:08:53.733Z,2.40
2017-08-24T17:11:22.830Z,1.40
2017-08-24T17:13:51.147Z,1.33
2017-08-24T17:16:19.486Z,1.57
2017-08-24T17:18:47.790Z,1.57
2017-08-24T17:21:16.126Z,1.33
2017-08-24T17:23:44.473Z,1.20
2017-08-24T17:26:12.783Z,1.20
2017-08-24T17:28:41.102Z,1.10
2017-08-24T17:31:10.197Z,1.30
2017-08-24T17:33:38.514Z,1.30
2017-08-24T17:36:06.846Z,1.60
2017-08-24T17:38:35.166Z,1.20
2017-08-24T17:41:03.491Z,1.47
2017-08-24T17:43:32.725Z,1.50
2017-08-24T17:46:01.049Z,1.13
2017-08-24T17:48:29.360Z,1.00
2017-08-24T17:50:57.699Z,1.70
2017-08-24T17:53:26.005Z,1.13
2017-08-24T17:55:54.345Z,1.63
2017-08-24T17:58:22.660Z,1.30
2017-08-24T18:00:51.011Z,1.63
2017-08-24T18:03:19.318Z,1.40
2017-08-24T18:05:47.623Z,1.60
2017-08-24T18:08:15.972Z,1.90
2017-08-24T18:10:44.292Z,1.30
2017-08-24T18:13:12.630Z,1.57
2017-08-24T18:15:40.962Z,1.80
2017-08-24T18:18:09.303Z,1.83
2017-08-24T18:20:38.407Z,2.30
2017-08-24T18:23:06.748Z,2.00
2017-08-24T18:25:35.057Z,2.07
2017-08-24T18:28:04.167Z,3.00
2017-08-24T18:30:32.486Z,1.90
2017-08-24T18:33:00.834Z,2.13
2017-08-24T18:35:29.181Z,1.40
2017-08-24T18:37:57.583Z,1.60
2017-08-24T18:40:25.919Z,1.73
2017-08-24T18:42:54.320Z,1.40
2017-08-24T18:45:23.422Z,1.80
2017-08-24T18:47:51.750Z,1.50
2017-08-24T18:50:20.073Z,1.33
2017-08-24T18:52:48.395Z,1.40
2017-08-24T18:55:16.759Z,1.60
2017-08-24T18:57:45.066Z,1.50
2017-08-24T19:00:14.420Z,1.83
2017-08-24T19:02:42.734Z,1.73
2017-08-24T19:05:11.096Z,1.83
2017-08-24T19:07:39.414Z,1.57
2017-08-24T19:10:08.950Z,1.87
2017-08-24T19:12:38.309Z,1.63
2017-08-24T19:15:06.656Z,1.50
2017-08-24T19:17:35.007Z,1.90
2017-08-24T19:20:03.330Z,2.10
2017-08-24T19:22:31.674Z,2.13
2017-08-24T19:24:59.982Z,2.70
2017-08-24T19:27:28.323Z,2.20
2017-08-24T19:29:56.696Z,2.03
2017-08-24T19:32:25.070Z,1.70
2017-08-24T19:34:53.423Z,1.90
2017-08-24T19:37:21.758Z,1.50
2017-08-24T19:39:50.079Z,1.57
2017-08-24T19:42:18.460Z,1.70
2017-08-24T19:44:46.753Z,1.50
2017-08-24T19:47:15.079Z,1.80
2017-08-24T19:49:43.435Z,2.40
2017-08-24T19:52:11.743Z,1.60
2017-08-24T19:54:40.082Z,1.63
2017-08-24T19:57:08.407Z,2.37
2017-08-24T19:59:36.735Z,1.97
2017-08-24T20:02:05.062Z,2.33
2017-08-24T20:04:33.413Z,2.20
2017-08-24T20:07:01.743Z,2.20
2017-08-24T20:09:30.158Z,1.90
2017-08-24T20:11:58.492Z,1.83
2017-08-24T20:14:26.819Z,1.83
2017-08-24T20:16:55.148Z,1.70
2017-08-24T20:19:23.507Z,2.50
2017-08-24T20:21:51.826Z,1.70
2017-08-24T20:24:20.134Z,2.00
2017-08-24T20:26:48.481Z,1.90
2017-08-24T20:29:16.786Z,2.80
2017-08-24T20:31:45.121Z,3.90
2017-08-24T20:34:13.425Z,3.30
2017-08-24T20:36:41.766Z,2.43
2017-08-24T20:39:10.075Z,2.13
2017-08-24T20:41:38.403Z,2.20
2017-08-24T20:44:06.713Z,2.20
2017-08-24T20:46:35.041Z,2.43
2017-08-24T20:49:03.350Z,2.10
2017-08-24T20:51:31.684Z,2.30
2017-08-24T20:53:59.990Z,2.70
2017-08-24T20:56:28.331Z,2.03
2017-08-24T20:58:56.637Z,2.80
2017-08-24T21:01:24.938Z,2.03
2017-08-24T21:03:53.275Z,2.37
2017-08-24T21:06:21.593Z,2.07
2017-08-24T21:08:49.926Z,2.40
2017-08-24T21:11:18.243Z,2.40
2017-08-24T21:13:46.566Z,2.50
2017-08-24T21:16:14.871Z,2.33
2017-08-24T21:18:43.198Z,2.23
2017-08-24T21:21:11.524Z,2.40
2017-08-24T21:23:39.858Z,2.20
2017-08-24T21:26:08.164Z,2.43
2017-08-24T21:28:36.489Z,2.30
2017-08-24T21:31:04.794Z,2.70
2017-08-24T21:33:33.125Z,2.50
2017-08-24T21:36:01.441Z,2.33
2017-08-24T21:38:29.749Z,1.80
2017-08-24T21:40:58.082Z,2.23
2017-08-24T21:43:26.405Z,2.40
2017-08-24T21:45:54.734Z,1.83
2017-08-24T21:48:23.056Z,1.97
2017-08-24T21:50:51.385Z,1.93
2017-08-24T21:53:19.719Z,2.50
2017-08-24T21:55:48.056Z,2.03
2017-08-24T21:58:17.121Z,2.50
2017-08-24T22:00:45.453Z,2.17
2017-08-24T22:03:14.551Z,2.40
2017-08-24T22:05:42.878Z,2.30
2017-08-24T22:08:11.191Z,2.60
2017-08-24T22:10:39.518Z,2.03
2017-08-24T22:13:08.600Z,2.67
2017-08-24T22:15:36.937Z,2.53
2017-08-24T22:18:05.242Z,2.30
2017-08-24T22:20:34.478Z,2.77
2017-08-24T22:23:02.809Z,2.30
2017-08-24T22:25:31.110Z,2.70
2017-08-24T22:27:59.442Z,2.33
2017-08-24T22:30:27.754Z,2.30
2017-08-24T22:32:56.087Z,2.10
2017-08-24T22:35:24.399Z,3.40
2017-08-24T22:37:52.735Z,2.27
2017-08-24T22:40:21.043Z,2.30
2017-08-24T22:42:49.386Z,2.33
2017-08-24T22:45:17.697Z,2.67
2017-08-24T22:47:46.045Z,2.70
2017-08-24T22:50:14.399Z,2.13
2017-08-24T22:52:42.711Z,2.13
2017-08-24T22:55:16.845Z,2.37
2017-08-24T22:57:50.723Z,2.60
2017-08-24T23:00:24.716Z,2.70
2017-08-24T23:02:58.792Z,2.80
2017-08-24T23:05:27.123Z,2.40
2017-08-24T23:07:55.431Z,2.50
2017-08-24T23:10:23.766Z,2.60
2017-08-24T23:12:52.080Z,2.30
2017-08-24T23:15:20.406Z,2.50
2017-08-24T23:17:48.710Z,2.73
2017-08-24T23:20:17.042Z,2.47
2017-08-24T23:22:45.399Z,2.50
2017-08-24T23:25:13.739Z,2.80
2017-08-24T23:27:42.049Z,2.63
2017-08-24T23:30:10.372Z,2.20
2017-08-24T23:32:38.697Z,1.90
2017-08-24T23:35:06.994Z,2.43
2017-08-24T23:37:35.313Z,2.67
2017-08-24T23:40:03.621Z,2.47
2017-08-24T23:42:31.959Z,2.50
2017-08-24T23:45:00.287Z,2.67
2017-08-24T23:47:28.624Z,2.70
2017-08-24T23:49:56.934Z,2.80
2017-08-24T23:52:26.251Z,2.60
2017-08-24T23:54:54.582Z,2.40
2017-08-24T23:57:22.906Z,2.27
2017-08-24T23:59:51.223Z,2.63
